sensor_id;sensor_type;location;lat;lon;timestamp;P1;durP1;ratioP1;P2;durP2;ratioP2
11048;SDS011;5577;42.706;23.160;2022-08-20T00:00:51;11.47;;;10.13;;
11048;SDS011;5577;42.706;23.160;2022-08-20T00:03:38;11.33;;;10.13;;
11048;SDS011;5577;42.706;23.160;2022-08-20T00:06:24;10.13;;;9.13;;
11048;SDS011;5577;42.706;23.160;2022-08-20T00:09:08;11.70;;;10.03;;
11048;SDS011;5577;42.706;23.160;2022-08-20T00:11:51;11.40;;;10.00;;
11048;SDS011;5577;42.706;23.160;2022-08-20T00:14:36;11.20;;;10.07;;
11048;SDS011;5577;42.706;23.160;2022-08-20T00:17:21;10.33;;;9.40;;
11048;SDS011;5577;42.706;23.160;2022-08-20T00:20:09;11.30;;;10.07;;
11048;SDS011;5577;42.706;23.160;2022-08-20T00:22:56;11.67;;;10.57;;
11048;SDS011;5577;42.706;23.160;2022-08-20T00:25:41;11.20;;;10.10;;
11048;SDS011;5577;42.706;23.160;2022-08-20T00:28:26;11.70;;;9.57;;
11048;SDS011;5577;42.706;23.160;2022-08-20T00:31:11;11.70;;;10.40;;
11048;SDS011;5577;42.706;23.160;2022-08-20T00:33:57;11.70;;;10.53;;
11048;SDS011;5577;42.706;23.160;2022-08-20T00:36:41;11.53;;;10.43;;
11048;SDS011;5577;42.706;23.160;2022-08-20T00:39:25;11.20;;;10.00;;
11048;SDS011;5577;42.706;23.160;2022-08-20T00:42:09;12.50;;;10.17;;
11048;SDS011;5577;42.706;23.160;2022-08-20T00:44:54;12.57;;;10.83;;
11048;SDS011;5577;42.706;23.160;2022-08-20T00:47:38;11.93;;;9.90;;
11048;SDS011;5577;42.706;23.160;2022-08-20T00:50:30;11.33;;;10.20;;
11048;SDS011;5577;42.706;23.160;2022-08-20T00:53:19;12.37;;;11.03;;
11048;SDS011;5577;42.706;23.160;2022-08-20T00:56:05;11.13;;;10.07;;
11048;SDS011;5577;42.706;23.160;2022-08-20T00:58:50;11.20;;;10.00;;
11048;SDS011;5577;42.706;23.160;2022-08-20T01:01:35;12.10;;;10.53;;
11048;SDS011;5577;42.706;23.160;2022-08-20T01:04:20;11.73;;;10.63;;
11048;SDS011;5577;42.706;23.160;2022-08-20T01:07:04;12.33;;;10.67;;
11048;SDS011;5577;42.706;23.160;2022-08-20T01:09:50;11.33;;;10.33;;
11048;SDS011;5577;42.706;23.160;2022-08-20T01:12:34;11.83;;;10.67;;
11048;SDS011;5577;42.706;23.160;2022-08-20T01:15:20;12.87;;;10.70;;
11048;SDS011;5577;42.706;23.160;2022-08-20T01:18:09;11.50;;;10.13;;
11048;SDS011;5577;42.706;23.160;2022-08-20T01:21:01;15.33;;;10.93;;
11048;SDS011;5577;42.706;23.160;2022-08-20T01:26:35;11.53;;;10.27;;
11048;SDS011;5577;42.706;23.160;2022-08-20T01:29:24;10.23;;;9.23;;
11048;SDS011;5577;42.706;23.160;2022-08-20T01:32:12;11.67;;;9.67;;
11048;SDS011;5577;42.706;23.160;2022-08-20T01:34:55;13.33;;;10.00;;
11048;SDS011;5577;42.706;23.160;2022-08-20T01:37:39;12.10;;;10.90;;
11048;SDS011;5577;42.706;23.160;2022-08-20T01:40:32;11.37;;;10.23;;
11048;SDS011;5577;42.706;23.160;2022-08-20T01:43:29;10.30;;;9.30;;
11048;SDS011;5577;42.706;23.160;2022-08-20T01:46:14;10.77;;;9.60;;
11048;SDS011;5577;42.706;23.160;2022-08-20T01:48:59;11.93;;;10.40;;
11048;SDS011;5577;42.706;23.160;2022-08-20T01:51:56;10.73;;;9.73;;
11048;SDS011;5577;42.706;23.160;2022-08-20T01:54:43;11.33;;;10.13;;
11048;SDS011;5577;42.706;23.160;2022-08-20T01:57:30;11.80;;;9.97;;
11048;SDS011;5577;42.706;23.160;2022-08-20T02:00:15;11.13;;;10.03;;
11048;SDS011;5577;42.706;23.160;2022-08-20T02:03:01;10.53;;;9.50;;
11048;SDS011;5577;42.706;23.160;2022-08-20T02:05:46;10.47;;;9.40;;
11048;SDS011;5577;42.706;23.160;2022-08-20T02:08:30;9.93;;;9.03;;
11048;SDS011;5577;42.706;23.160;2022-08-20T02:11:16;10.27;;;9.37;;
11048;SDS011;5577;42.706;23.160;2022-08-20T02:14:00;10.83;;;9.70;;
11048;SDS011;5577;42.706;23.160;2022-08-20T02:16:45;10.20;;;9.20;;
11048;SDS011;5577;42.706;23.160;2022-08-20T02:19:37;9.83;;;8.93;;
11048;SDS011;5577;42.706;23.160;2022-08-20T02:25:14;10.67;;;9.60;;
11048;SDS011;5577;42.706;23.160;2022-08-20T02:28:01;11.77;;;9.87;;
11048;SDS011;5577;42.706;23.160;2022-08-20T02:30:50;10.37;;;9.33;;
11048;SDS011;5577;42.706;23.160;2022-08-20T02:33:36;10.60;;;9.60;;
11048;SDS011;5577;42.706;23.160;2022-08-20T02:36:20;11.20;;;10.00;;
11048;SDS011;5577;42.706;23.160;2022-08-20T02:39:04;14.27;;;9.87;;
11048;SDS011;5577;42.706;23.160;2022-08-20T02:41:50;12.83;;;10.07;;
11048;SDS011;5577;42.706;23.160;2022-08-20T02:44:35;10.27;;;9.37;;
11048;SDS011;5577;42.706;23.160;2022-08-20T02:47:18;10.87;;;9.77;;
11048;SDS011;5577;42.706;23.160;2022-08-20T02:50:03;11.00;;;10.00;;
11048;SDS011;5577;42.706;23.160;2022-08-20T02:52:49;10.80;;;9.67;;
11048;SDS011;5577;42.706;23.160;2022-08-20T02:55:33;10.57;;;9.57;;
11048;SDS011;5577;42.706;23.160;2022-08-20T02:58:18;11.30;;;10.20;;
11048;SDS011;5577;42.706;23.160;2022-08-20T03:01:03;11.43;;;10.00;;
11048;SDS011;5577;42.706;23.160;2022-08-20T03:03:48;11.47;;;10.00;;
11048;SDS011;5577;42.706;23.160;2022-08-20T03:06:32;10.80;;;9.67;;
11048;SDS011;5577;42.706;23.160;2022-08-20T03:09:16;11.40;;;10.07;;
11048;SDS011;5577;42.706;23.160;2022-08-20T03:12:01;11.17;;;10.07;;
11048;SDS011;5577;42.706;23.160;2022-08-20T03:14:45;10.13;;;9.10;;
11048;SDS011;5577;42.706;23.160;2022-08-20T03:17:29;11.70;;;9.80;;
11048;SDS011;5577;42.706;23.160;2022-08-20T03:20:13;11.43;;;10.37;;
11048;SDS011;5577;42.706;23.160;2022-08-20T03:22:58;11.43;;;10.23;;
11048;SDS011;5577;42.706;23.160;2022-08-20T03:25:42;10.60;;;9.60;;
11048;SDS011;5577;42.706;23.160;2022-08-20T03:28:27;11.17;;;9.93;;
11048;SDS011;5577;42.706;23.160;2022-08-20T03:31:11;11.30;;;10.20;;
11048;SDS011;5577;42.706;23.160;2022-08-20T03:33:55;10.90;;;9.80;;
11048;SDS011;5577;42.706;23.160;2022-08-20T03:36:39;11.73;;;10.13;;
11048;SDS011;5577;42.706;23.160;2022-08-20T03:39:23;11.50;;;10.30;;
11048;SDS011;5577;42.706;23.160;2022-08-20T03:42:07;12.10;;;10.90;;
11048;SDS011;5577;42.706;23.160;2022-08-20T03:44:51;11.60;;;10.40;;
11048;SDS011;5577;42.706;23.160;2022-08-20T03:47:36;13.03;;;10.97;;
11048;SDS011;5577;42.706;23.160;2022-08-20T03:50:22;11.90;;;10.70;;
11048;SDS011;5577;42.706;23.160;2022-08-20T03:53:08;13.63;;;10.87;;
11048;SDS011;5577;42.706;23.160;2022-08-20T03:55:55;11.83;;;10.53;;
11048;SDS011;5577;42.706;23.160;2022-08-20T03:58:39;12.00;;;10.10;;
11048;SDS011;5577;42.706;23.160;2022-08-20T04:01:23;11.67;;;10.50;;
11048;SDS011;5577;42.706;23.160;2022-08-20T04:04:07;11.50;;;10.27;;
11048;SDS011;5577;42.706;23.160;2022-08-20T04:06:52;11.97;;;10.77;;
11048;SDS011;5577;42.706;23.160;2022-08-20T04:09:36;12.00;;;10.80;;
11048;SDS011;5577;42.706;23.160;2022-08-20T04:12:22;14.00;;;11.60;;
11048;SDS011;5577;42.706;23.160;2022-08-20T04:15:11;15.83;;;10.63;;
11048;SDS011;5577;42.706;23.160;2022-08-20T04:17:58;13.83;;;11.20;;
11048;SDS011;5577;42.706;23.160;2022-08-20T04:20:42;12.43;;;11.23;;
11048;SDS011;5577;42.706;23.160;2022-08-20T04:23:26;11.97;;;10.87;;
11048;SDS011;5577;42.706;23.160;2022-08-20T04:26:10;12.87;;;10.47;;
11048;SDS011;5577;42.706;23.160;2022-08-20T04:28:54;13.33;;;10.50;;
11048;SDS011;5577;42.706;23.160;2022-08-20T04:31:38;14.50;;;9.97;;
11048;SDS011;5577;42.706;23.160;2022-08-20T04:34:22;11.53;;;10.10;;
11048;SDS011;5577;42.706;23.160;2022-08-20T04:37:06;14.07;;;10.93;;
11048;SDS011;5577;42.706;23.160;2022-08-20T04:39:50;12.00;;;10.90;;
11048;SDS011;5577;42.706;23.160;2022-08-20T04:43:13;12.57;;;10.37;;
11048;SDS011;5577;42.706;23.160;2022-08-20T04:45:59;15.90;;;11.03;;
11048;SDS011;5577;42.706;23.160;2022-08-20T04:48:45;12.17;;;10.93;;
11048;SDS011;5577;42.706;23.160;2022-08-20T04:51:29;14.87;;;10.83;;
11048;SDS011;5577;42.706;23.160;2022-08-20T04:54:14;12.93;;;11.37;;
11048;SDS011;5577;42.706;23.160;2022-08-20T04:56:58;11.40;;;10.20;;
11048;SDS011;5577;42.706;23.160;2022-08-20T04:59:44;15.30;;;10.43;;
11048;SDS011;5577;42.706;23.160;2022-08-20T05:02:28;12.97;;;11.13;;
11048;SDS011;5577;42.706;23.160;2022-08-20T05:05:13;11.27;;;10.17;;
11048;SDS011;5577;42.706;23.160;2022-08-20T05:07:58;12.23;;;10.97;;
11048;SDS011;5577;42.706;23.160;2022-08-20T05:10:41;11.83;;;10.43;;
11048;SDS011;5577;42.706;23.160;2022-08-20T05:13:27;11.50;;;10.23;;
11048;SDS011;5577;42.706;23.160;2022-08-20T05:16:11;11.00;;;9.80;;
11048;SDS011;5577;42.706;23.160;2022-08-20T05:18:56;10.10;;;9.17;;
11048;SDS011;5577;42.706;23.160;2022-08-20T05:21:42;11.20;;;9.57;;
11048;SDS011;5577;42.706;23.160;2022-08-20T05:24:26;11.77;;;9.73;;
11048;SDS011;5577;42.706;23.160;2022-08-20T05:27:10;11.57;;;10.37;;
11048;SDS011;5577;42.706;23.160;2022-08-20T05:29:58;12.23;;;10.77;;
11048;SDS011;5577;42.706;23.160;2022-08-20T05:32:52;13.23;;;10.40;;
11048;SDS011;5577;42.706;23.160;2022-08-20T05:35:36;12.13;;;10.87;;
11048;SDS011;5577;42.706;23.160;2022-08-20T05:38:22;11.60;;;10.40;;
11048;SDS011;5577;42.706;23.160;2022-08-20T05:41:09;11.30;;;10.03;;
11048;SDS011;5577;42.706;23.160;2022-08-20T05:43:53;11.47;;;10.33;;
11048;SDS011;5577;42.706;23.160;2022-08-20T05:46:38;12.97;;;10.63;;
11048;SDS011;5577;42.706;23.160;2022-08-20T05:49:23;14.67;;;10.60;;
11048;SDS011;5577;42.706;23.160;2022-08-20T05:52:08;11.93;;;10.73;;
11048;SDS011;5577;42.706;23.160;2022-08-20T05:54:51;11.90;;;10.70;;
11048;SDS011;5577;42.706;23.160;2022-08-20T05:57:38;15.00;;;10.67;;
11048;SDS011;5577;42.706;23.160;2022-08-20T06:00:23;11.37;;;10.27;;
11048;SDS011;5577;42.706;23.160;2022-08-20T06:03:07;11.60;;;10.50;;
11048;SDS011;5577;42.706;23.160;2022-08-20T06:06:10;11.77;;;10.50;;
11048;SDS011;5577;42.706;23.160;2022-08-20T06:08:54;11.20;;;10.20;;
11048;SDS011;5577;42.706;23.160;2022-08-20T06:11:39;12.33;;;10.17;;
11048;SDS011;5577;42.706;23.160;2022-08-20T06:14:22;12.47;;;10.20;;
11048;SDS011;5577;42.706;23.160;2022-08-20T06:17:08;13.47;;;9.97;;
11048;SDS011;5577;42.706;23.160;2022-08-20T06:19:54;12.63;;;11.17;;
11048;SDS011;5577;42.706;23.160;2022-08-20T06:22:38;12.63;;;11.33;;
11048;SDS011;5577;42.706;23.160;2022-08-20T06:25:22;12.70;;;10.67;;
11048;SDS011;5577;42.706;23.160;2022-08-20T06:28:06;11.33;;;10.17;;
11048;SDS011;5577;42.706;23.160;2022-08-20T06:30:50;11.83;;;10.63;;
11048;SDS011;5577;42.706;23.160;2022-08-20T06:33:34;13.17;;;10.10;;
11048;SDS011;5577;42.706;23.160;2022-08-20T06:36:19;13.83;;;11.07;;
11048;SDS011;5577;42.706;23.160;2022-08-20T06:39:02;11.70;;;10.50;;
11048;SDS011;5577;42.706;23.160;2022-08-20T06:41:46;12.87;;;10.60;;
11048;SDS011;5577;42.706;23.160;2022-08-20T06:44:30;11.60;;;9.97;;
11048;SDS011;5577;42.706;23.160;2022-08-20T06:47:18;11.83;;;10.63;;
11048;SDS011;5577;42.706;23.160;2022-08-20T06:50:05;12.00;;;10.63;;
11048;SDS011;5577;42.706;23.160;2022-08-20T06:52:52;11.97;;;10.67;;
11048;SDS011;5577;42.706;23.160;2022-08-20T06:55:36;14.80;;;10.83;;
11048;SDS011;5577;42.706;23.160;2022-08-20T06:58:23;13.23;;;9.80;;
11048;SDS011;5577;42.706;23.160;2022-08-20T07:01:08;11.90;;;10.70;;
11048;SDS011;5577;42.706;23.160;2022-08-20T07:03:54;12.20;;;10.90;;
11048;SDS011;5577;42.706;23.160;2022-08-20T07:06:42;15.63;;;11.03;;
11048;SDS011;5577;42.706;23.160;2022-08-20T07:09:26;12.87;;;10.23;;
11048;SDS011;5577;42.706;23.160;2022-08-20T07:12:11;11.57;;;10.37;;
11048;SDS011;5577;42.706;23.160;2022-08-20T07:14:55;14.90;;;10.63;;
11048;SDS011;5577;42.706;23.160;2022-08-20T07:17:39;11.87;;;10.67;;
11048;SDS011;5577;42.706;23.160;2022-08-20T07:20:24;16.43;;;10.80;;
11048;SDS011;5577;42.706;23.160;2022-08-20T07:23:08;14.90;;;11.33;;
11048;SDS011;5577;42.706;23.160;2022-08-20T07:25:54;14.50;;;11.20;;
11048;SDS011;5577;42.706;23.160;2022-08-20T07:28:39;35.77;;;12.53;;
11048;SDS011;5577;42.706;23.160;2022-08-20T07:31:23;12.57;;;11.23;;
11048;SDS011;5577;42.706;23.160;2022-08-20T07:34:25;14.30;;;11.40;;
11048;SDS011;5577;42.706;23.160;2022-08-20T07:37:09;12.37;;;11.13;;
11048;SDS011;5577;42.706;23.160;2022-08-20T07:39:53;13.27;;;11.13;;
11048;SDS011;5577;42.706;23.160;2022-08-20T07:42:37;19.77;;;11.07;;
11048;SDS011;5577;42.706;23.160;2022-08-20T07:45:23;12.67;;;11.37;;
11048;SDS011;5577;42.706;23.160;2022-08-20T07:48:08;12.33;;;10.93;;
11048;SDS011;5577;42.706;23.160;2022-08-20T07:50:54;13.10;;;10.90;;
11048;SDS011;5577;42.706;23.160;2022-08-20T07:53:47;14.93;;;11.53;;
11048;SDS011;5577;42.706;23.160;2022-08-20T07:56:32;11.40;;;10.40;;
11048;SDS011;5577;42.706;23.160;2022-08-20T07:59:17;13.83;;;11.00;;
11048;SDS011;5577;42.706;23.160;2022-08-20T08:02:02;12.23;;;10.93;;
11048;SDS011;5577;42.706;23.160;2022-08-20T08:04:47;11.70;;;10.50;;
11048;SDS011;5577;42.706;23.160;2022-08-20T08:07:31;12.20;;;11.00;;
11048;SDS011;5577;42.706;23.160;2022-08-20T08:10:19;13.60;;;10.70;;
11048;SDS011;5577;42.706;23.160;2022-08-20T08:13:06;15.43;;;11.30;;
11048;SDS011;5577;42.706;23.160;2022-08-20T08:15:54;11.97;;;10.43;;
11048;SDS011;5577;42.706;23.160;2022-08-20T08:18:42;12.87;;;10.50;;
11048;SDS011;5577;42.706;23.160;2022-08-20T08:21:32;16.90;;;11.20;;
11048;SDS011;5577;42.706;23.160;2022-08-20T08:24:16;13.00;;;11.03;;
11048;SDS011;5577;42.706;23.160;2022-08-20T08:27:03;14.80;;;11.10;;
11048;SDS011;5577;42.706;23.160;2022-08-20T08:29:47;12.27;;;10.60;;
11048;SDS011;5577;42.706;23.160;2022-08-20T08:32:33;12.70;;;10.40;;
11048;SDS011;5577;42.706;23.160;2022-08-20T08:35:18;12.17;;;10.53;;
11048;SDS011;5577;42.706;23.160;2022-08-20T08:38:02;14.43;;;11.67;;
11048;SDS011;5577;42.706;23.160;2022-08-20T08:40:47;12.10;;;10.47;;
11048;SDS011;5577;42.706;23.160;2022-08-20T08:43:36;13.40;;;10.70;;
11048;SDS011;5577;42.706;23.160;2022-08-20T08:46:23;14.83;;;11.47;;
11048;SDS011;5577;42.706;23.160;2022-08-20T08:49:13;11.73;;;10.40;;
11048;SDS011;5577;42.706;23.160;2022-08-20T08:52:01;14.90;;;10.63;;
11048;SDS011;5577;42.706;23.160;2022-08-20T08:54:55;12.77;;;11.33;;
11048;SDS011;5577;42.706;23.160;2022-08-20T08:57:45;11.93;;;10.73;;
11048;SDS011;5577;42.706;23.160;2022-08-20T09:00:30;13.40;;;11.37;;
11048;SDS011;5577;42.706;23.160;2022-08-20T09:03:35;14.57;;;10.53;;
11048;SDS011;5577;42.706;23.160;2022-08-20T09:06:23;11.53;;;10.50;;
11048;SDS011;5577;42.706;23.160;2022-08-20T09:09:18;11.37;;;10.17;;
11048;SDS011;5577;42.706;23.160;2022-08-20T09:12:10;14.37;;;11.20;;
11048;SDS011;5577;42.706;23.160;2022-08-20T09:14:56;12.47;;;11.13;;
11048;SDS011;5577;42.706;23.160;2022-08-20T09:17:40;11.90;;;10.90;;
11048;SDS011;5577;42.706;23.160;2022-08-20T09:20:24;12.07;;;10.80;;
11048;SDS011;5577;42.706;23.160;2022-08-20T09:23:09;12.07;;;10.77;;
11048;SDS011;5577;42.706;23.160;2022-08-20T09:25:53;13.23;;;10.23;;
11048;SDS011;5577;42.706;23.160;2022-08-20T09:28:37;13.80;;;11.30;;
11048;SDS011;5577;42.706;23.160;2022-08-20T09:31:21;13.47;;;10.33;;
11048;SDS011;5577;42.706;23.160;2022-08-20T09:34:06;12.70;;;10.70;;
11048;SDS011;5577;42.706;23.160;2022-08-20T09:36:50;12.23;;;11.00;;
11048;SDS011;5577;42.706;23.160;2022-08-20T09:39:34;12.27;;;11.07;;
11048;SDS011;5577;42.706;23.160;2022-08-20T09:42:20;12.37;;;11.07;;
11048;SDS011;5577;42.706;23.160;2022-08-20T09:45:07;14.43;;;11.03;;
11048;SDS011;5577;42.706;23.160;2022-08-20T09:47:52;13.07;;;11.07;;
11048;SDS011;5577;42.706;23.160;2022-08-20T09:50:39;13.13;;;11.67;;
11048;SDS011;5577;42.706;23.160;2022-08-20T09:53:31;11.10;;;10.10;;
11048;SDS011;5577;42.706;23.160;2022-08-20T09:56:15;13.37;;;10.70;;
11048;SDS011;5577;42.706;23.160;2022-08-20T09:58:59;12.47;;;11.10;;
11048;SDS011;5577;42.706;23.160;2022-08-20T10:01:43;12.03;;;10.83;;
11048;SDS011;5577;42.706;23.160;2022-08-20T10:04:27;12.03;;;10.83;;
11048;SDS011;5577;42.706;23.160;2022-08-20T10:07:11;11.90;;;10.80;;
11048;SDS011;5577;42.706;23.160;2022-08-20T10:09:55;13.23;;;11.47;;
11048;SDS011;5577;42.706;23.160;2022-08-20T10:12:40;12.40;;;10.20;;
11048;SDS011;5577;42.706;23.160;2022-08-20T10:15:24;11.40;;;10.30;;
11048;SDS011;5577;42.706;23.160;2022-08-20T10:18:08;11.75;;;10.65;;
11048;SDS011;5577;42.706;23.160;2022-08-20T10:20:52;18.98;;;11.52;;
11048;SDS011;5577;42.706;23.160;2022-08-20T10:23:36;22.93;;;12.73;;
11048;SDS011;5577;42.706;23.160;2022-08-20T10:26:21;11.87;;;10.87;;
11048;SDS011;5577;42.706;23.160;2022-08-20T10:29:05;13.63;;;11.67;;
11048;SDS011;5577;42.706;23.160;2022-08-20T10:31:49;12.98;;;11.75;;
11048;SDS011;5577;42.706;23.160;2022-08-20T10:34:34;15.75;;;11.07;;
11048;SDS011;5577;42.706;23.160;2022-08-20T10:37:19;11.87;;;10.77;;
11048;SDS011;5577;42.706;23.160;2022-08-20T10:40:06;11.68;;;10.73;;
11048;SDS011;5577;42.706;23.160;2022-08-20T10:42:50;15.85;;;14.23;;
11048;SDS011;5577;42.706;23.160;2022-08-20T10:45:34;13.18;;;11.85;;
11048;SDS011;5577;42.706;23.160;2022-08-20T10:48:20;12.88;;;11.60;;
11048;SDS011;5577;42.706;23.160;2022-08-20T10:51:05;13.98;;;11.35;;
11048;SDS011;5577;42.706;23.160;2022-08-20T10:53:49;12.27;;;11.05;;
11048;SDS011;5577;42.706;23.160;2022-08-20T10:56:33;14.65;;;11.48;;
11048;SDS011;5577;42.706;23.160;2022-08-20T10:59:17;12.95;;;11.65;;
11048;SDS011;5577;42.706;23.160;2022-08-20T11:02:02;12.02;;;10.93;;
11048;SDS011;5577;42.706;23.160;2022-08-20T11:04:47;12.32;;;11.23;;
11048;SDS011;5577;42.706;23.160;2022-08-20T11:07:33;11.95;;;10.63;;
11048;SDS011;5577;42.706;23.160;2022-08-20T11:10:20;11.93;;;10.68;;
11048;SDS011;5577;42.706;23.160;2022-08-20T11:13:05;12.05;;;10.73;;
11048;SDS011;5577;42.706;23.160;2022-08-20T11:15:50;11.50;;;10.32;;
11048;SDS011;5577;42.706;23.160;2022-08-20T11:18:34;12.40;;;11.00;;
11048;SDS011;5577;42.706;23.160;2022-08-20T11:21:18;11.70;;;10.68;;
11048;SDS011;5577;42.706;23.160;2022-08-20T11:24:02;14.60;;;11.43;;
11048;SDS011;5577;42.706;23.160;2022-08-20T11:26:46;12.43;;;11.35;;
11048;SDS011;5577;42.706;23.160;2022-08-20T11:29:31;12.32;;;11.13;;
11048;SDS011;5577;42.706;23.160;2022-08-20T11:32:16;12.37;;;11.17;;
11048;SDS011;5577;42.706;23.160;2022-08-20T11:35:01;13.00;;;11.70;;
11048;SDS011;5577;42.706;23.160;2022-08-20T11:37:45;14.47;;;11.63;;
11048;SDS011;5577;42.706;23.160;2022-08-20T11:40:29;12.27;;;11.17;;
11048;SDS011;5577;42.706;23.160;2022-08-20T11:43:14;13.50;;;12.10;;
11048;SDS011;5577;42.706;23.160;2022-08-20T11:45:59;12.73;;;11.40;;
11048;SDS011;5577;42.706;23.160;2022-08-20T11:48:42;15.10;;;11.47;;
11048;SDS011;5577;42.706;23.160;2022-08-20T11:51:26;12.73;;;11.33;;
11048;SDS011;5577;42.706;23.160;2022-08-20T11:54:10;11.77;;;10.73;;
11048;SDS011;5577;42.706;23.160;2022-08-20T11:56:54;12.70;;;11.17;;
11048;SDS011;5577;42.706;23.160;2022-08-20T11:59:40;14.47;;;11.50;;
11048;SDS011;5577;42.706;23.160;2022-08-20T12:02:24;13.43;;;12.13;;
11048;SDS011;5577;42.706;23.160;2022-08-20T12:05:09;13.40;;;11.93;;
11048;SDS011;5577;42.706;23.160;2022-08-20T12:07:54;15.70;;;11.40;;
11048;SDS011;5577;42.706;23.160;2022-08-20T12:10:39;14.83;;;12.27;;
11048;SDS011;5577;42.706;23.160;2022-08-20T12:13:24;14.17;;;12.87;;
11048;SDS011;5577;42.706;23.160;2022-08-20T12:16:12;14.17;;;12.77;;
11048;SDS011;5577;42.706;23.160;2022-08-20T12:18:56;13.50;;;11.70;;
11048;SDS011;5577;42.706;23.160;2022-08-20T12:21:40;14.20;;;12.70;;
11048;SDS011;5577;42.706;23.160;2022-08-20T12:24:24;14.70;;;13.27;;
11048;SDS011;5577;42.706;23.160;2022-08-20T12:27:09;13.87;;;12.57;;
11048;SDS011;5577;42.706;23.160;2022-08-20T12:29:55;14.33;;;12.83;;
11048;SDS011;5577;42.706;23.160;2022-08-20T12:32:41;15.70;;;13.40;;
11048;SDS011;5577;42.706;23.160;2022-08-20T12:35:25;14.63;;;12.77;;
11048;SDS011;5577;42.706;23.160;2022-08-20T12:38:09;16.23;;;13.37;;
11048;SDS011;5577;42.706;23.160;2022-08-20T12:40:53;17.10;;;13.50;;
11048;SDS011;5577;42.706;23.160;2022-08-20T12:43:37;14.23;;;12.77;;
11048;SDS011;5577;42.706;23.160;2022-08-20T12:46:21;14.00;;;12.50;;
11048;SDS011;5577;42.706;23.160;2022-08-20T12:49:05;27.03;;;24.43;;
11048;SDS011;5577;42.706;23.160;2022-08-20T12:51:49;19.33;;;17.27;;
11048;SDS011;5577;42.706;23.160;2022-08-20T12:54:33;21.83;;;18.70;;
11048;SDS011;5577;42.706;23.160;2022-08-20T12:57:23;14.53;;;13.20;;
11048;SDS011;5577;42.706;23.160;2022-08-20T13:00:13;13.00;;;11.50;;
11048;SDS011;5577;42.706;23.160;2022-08-20T13:03:02;13.10;;;11.73;;
11048;SDS011;5577;42.706;23.160;2022-08-20T13:05:48;11.70;;;10.47;;
11048;SDS011;5577;42.706;23.160;2022-08-20T13:08:33;11.03;;;9.93;;
11048;SDS011;5577;42.706;23.160;2022-08-20T13:11:17;10.87;;;9.83;;
11048;SDS011;5577;42.706;23.160;2022-08-20T13:14:01;11.47;;;10.27;;
11048;SDS011;5577;42.706;23.160;2022-08-20T13:16:45;11.43;;;10.33;;
11048;SDS011;5577;42.706;23.160;2022-08-20T13:19:29;11.00;;;9.87;;
11048;SDS011;5577;42.706;23.160;2022-08-20T13:22:13;10.80;;;9.70;;
11048;SDS011;5577;42.706;23.160;2022-08-20T13:24:58;11.00;;;9.93;;
11048;SDS011;5577;42.706;23.160;2022-08-20T13:27:42;12.27;;;10.37;;
11048;SDS011;5577;42.706;23.160;2022-08-20T13:30:27;16.63;;;10.80;;
11048;SDS011;5577;42.706;23.160;2022-08-20T13:33:10;13.63;;;11.73;;
11048;SDS011;5577;42.706;23.160;2022-08-20T13:35:54;13.07;;;10.60;;
11048;SDS011;5577;42.706;23.160;2022-08-20T13:38:39;13.00;;;11.00;;
11048;SDS011;5577;42.706;23.160;2022-08-20T13:41:23;12.30;;;11.00;;
11048;SDS011;5577;42.706;23.160;2022-08-20T13:44:07;12.20;;;11.00;;
11048;SDS011;5577;42.706;23.160;2022-08-20T13:57:11;26.63;;;18.60;;
11048;SDS011;5577;42.706;23.160;2022-08-20T14:00:00;26.37;;;19.90;;
11048;SDS011;5577;42.706;23.160;2022-08-20T14:02:47;18.90;;;15.43;;
11048;SDS011;5577;42.706;23.160;2022-08-20T14:05:31;19.10;;;17.17;;
11048;SDS011;5577;42.706;23.160;2022-08-20T14:08:18;20.60;;;17.50;;
11048;SDS011;5577;42.706;23.160;2022-08-20T14:11:05;32.97;;;29.60;;
11048;SDS011;5577;42.706;23.160;2022-08-20T14:13:48;22.73;;;20.10;;
11048;SDS011;5577;42.706;23.160;2022-08-20T14:16:32;20.43;;;18.33;;
11048;SDS011;5577;42.706;23.160;2022-08-20T14:19:16;21.90;;;17.80;;
11048;SDS011;5577;42.706;23.160;2022-08-20T14:22:00;21.70;;;16.77;;
11048;SDS011;5577;42.706;23.160;2022-08-20T14:24:44;19.60;;;17.40;;
11048;SDS011;5577;42.706;23.160;2022-08-20T14:27:30;21.23;;;15.90;;
11048;SDS011;5577;42.706;23.160;2022-08-20T14:30:17;17.53;;;11.13;;
11048;SDS011;5577;42.706;23.160;2022-08-20T14:33:04;17.57;;;11.57;;
11048;SDS011;5577;42.706;23.160;2022-08-20T14:35:48;15.47;;;12.60;;
11048;SDS011;5577;42.706;23.160;2022-08-20T14:38:32;16.83;;;11.90;;
11048;SDS011;5577;42.706;23.160;2022-08-20T14:41:16;18.63;;;11.60;;
11048;SDS011;5577;42.706;23.160;2022-08-20T14:44:00;19.23;;;11.33;;
11048;SDS011;5577;42.706;23.160;2022-08-20T14:46:44;15.13;;;9.50;;
11048;SDS011;5577;42.706;23.160;2022-08-20T14:49:28;12.83;;;8.03;;
11048;SDS011;5577;42.706;23.160;2022-08-20T14:52:12;15.53;;;9.00;;
11048;SDS011;5577;42.706;23.160;2022-08-20T14:54:57;14.43;;;8.83;;
11048;SDS011;5577;42.706;23.160;2022-08-20T14:57:41;10.33;;;8.37;;
11048;SDS011;5577;42.706;23.160;2022-08-20T15:00:28;14.53;;;8.83;;
11048;SDS011;5577;42.706;23.160;2022-08-20T15:03:13;14.03;;;7.57;;
11048;SDS011;5577;42.706;23.160;2022-08-20T15:05:57;13.77;;;8.47;;
11048;SDS011;5577;42.706;23.160;2022-08-20T15:08:42;12.43;;;8.27;;
11048;SDS011;5577;42.706;23.160;2022-08-20T15:11:26;11.67;;;7.93;;
11048;SDS011;5577;42.706;23.160;2022-08-20T15:14:09;13.33;;;8.83;;
11048;SDS011;5577;42.706;23.160;2022-08-20T15:16:54;11.43;;;8.70;;
11048;SDS011;5577;42.706;23.160;2022-08-20T15:19:38;10.53;;;7.70;;
11048;SDS011;5577;42.706;23.160;2022-08-20T15:22:22;12.87;;;8.87;;
11048;SDS011;5577;42.706;23.160;2022-08-20T15:25:07;12.37;;;8.80;;
11048;SDS011;5577;42.706;23.160;2022-08-20T15:27:56;15.40;;;9.73;;
11048;SDS011;5577;42.706;23.160;2022-08-20T15:30:42;15.20;;;9.93;;
11048;SDS011;5577;42.706;23.160;2022-08-20T15:33:26;18.60;;;10.17;;
11048;SDS011;5577;42.706;23.160;2022-08-20T15:36:10;15.53;;;10.17;;
11048;SDS011;5577;42.706;23.160;2022-08-20T15:38:54;14.23;;;9.67;;
11048;SDS011;5577;42.706;23.160;2022-08-20T15:41:38;12.67;;;9.53;;
11048;SDS011;5577;42.706;23.160;2022-08-20T15:44:22;14.10;;;9.53;;
11048;SDS011;5577;42.706;23.160;2022-08-20T15:47:26;12.23;;;8.97;;
11048;SDS011;5577;42.706;23.160;2022-08-20T15:53:33;13.27;;;8.13;;
11048;SDS011;5577;42.706;23.160;2022-08-20T16:06:02;11.10;;;8.43;;
11048;SDS011;5577;42.706;23.160;2022-08-20T16:08:59;9.50;;;8.07;;
11048;SDS011;5577;42.706;23.160;2022-08-20T16:11:59;11.93;;;9.00;;
11048;SDS011;5577;42.706;23.160;2022-08-20T16:14:55;13.97;;;10.40;;
11048;SDS011;5577;42.706;23.160;2022-08-20T16:17:45;13.23;;;9.73;;
11048;SDS011;5577;42.706;23.160;2022-08-20T16:23:36;13.17;;;10.10;;
11048;SDS011;5577;42.706;23.160;2022-08-20T16:29:25;14.37;;;11.53;;
11048;SDS011;5577;42.706;23.160;2022-08-20T16:32:15;12.77;;;11.13;;
11048;SDS011;5577;42.706;23.160;2022-08-20T16:41:38;11.90;;;10.27;;
11048;SDS011;5577;42.706;23.160;2022-08-20T16:47:32;14.23;;;10.53;;
11048;SDS011;5577;42.706;23.160;2022-08-20T16:50:20;14.83;;;10.10;;
11048;SDS011;5577;42.706;23.160;2022-08-20T16:53:09;14.77;;;10.17;;
11048;SDS011;5577;42.706;23.160;2022-08-20T16:56:00;11.77;;;10.57;;